Varina, IA

13:27 CST le 27 novembre 2014 (GMT -0600)
Fort Dodge Regional | Change Station
CLOSE
Current Station
Aéroport
Location: Fort Dodge,
Altitude: 1165 ft
Stations météo à proximité

Alt. 1165 ft 42.55 °N, 94.19 °W | Updated 12 minutes ago

Partiellement nuageux
Partiellement nuageux
3 ° F
Paraît -6 ° F
N
5
Vent Variable Vent de Ouest

Aujourd'hui
Haut(e) -- | Bas -- ° F
--% Risque de précip.
Hier
Haut(e) -- | Bas -- ° F
Precip. -- pouce
7:25 AM 4:48 PM
Lune montante, 32% visible
Pression 30.48 pouce
Visibilité 10.0 Miles terrestres
Nuages Ciel dégagé
Refroidissement éolien -6 ° F
Point de rosée -4 ° F
Humidité 72%
Précipitations 0.00 pouce
Profondeur de la couche neigeuse Non disponible.
UV 2 sur 12
Pollen .10 sur 12
Qualité de l'air Non disponible.
Flu Activity Non disponible.
METAR KFOD 271915Z AUTO 28004KT 10SM CLR M16/M20 A3048 RMK AO1

More Conditions Fewer Conditions

Pression 30.48 pouce
Visibilité 10.0 Miles terrestres
Nuages Ciel dégagé
Refroidissement éolien -6 ° F
Point de rosée -4 ° F
Humidité 72%
Précipitations 0.00 pouce
Profondeur de la couche neigeuse Non disponible.
UV 2 sur 12
Pollen .10 sur 12
Qualité de l'air Non disponible.
Flu Activity Non disponible.
METAR KFOD 271915Z AUTO 28004KT 10SM CLR M16/M20 A3048 RMK AO1

More Conditions Fewer Conditions

10-Day Weather Forecast

Almanac

Astronomie

Nov. 27, 2014 Lever Coucher
Temps réel
Crépuscule civil
Crépuscule nautique
Crépuscule astronomique
Lune
Durée de lumière visible
Longueur du jour
Tomorrow will be .
, % of the Moon is Illuminated

Extrêmes aujourd'hui

State Highs State Lows

Community

WunderPhotos

Upload Photos

1,774,092 Photos téléchargées !

WunderBlogs® & News

Nearby

Qualité de l'air

  Qualité de l'air Indice de la qualité de l'air Polluant
Not available.

Épaisseur de neige

Station Depth Altitude

Activité sismique

Ville Distance Mag. Time & Date
Minimum magnitude displayed is 2.5.

Températures des eaux côtières

Lieu Température

Stations météo à proximité